• Join FlightAware (Why Join?)
  • Login
  • US Flag 
05:31AM EDT


 

Airport Tracker/Info


-or-


 

Live Flight TrackerFlight Track Log ✈ CTL21 ✈ 19-Jun-2013 ✈ KAZO - KBKL

Flight Track Log - Related Links

Times and Time Zones

All times are in EDT time to prevent confusion due to time zone crossing. See the CTL21 flight status page for this flight to view local times or setup timezone preferences in your user account.

Time Position Orientation Groundspeed Altitude Reporting Facility
EDT Latitude Longitude Course Direction KTS MPH feet Rate Location/Type
05:27PM 42.1539 -85.4128 118° Southeast 131 151 4,300  Level Chicago Center
05:28PM 42.1358 -85.3694 119° Southeast 132 152 5,100 720 Climbing Chicago Center
05:29PM 42.1181 -85.3272 120° Southeast 129 148 5,800 600 Climbing Chicago Center
05:30PM 42.0922 -85.2207 120° Southeast  Level FlightAware Approximate
05:30PM 42.1014 -85.2817 116° Southeast 133 153 6,400  Level Chicago Center
05:31PM 42.0701 -85.1647 117° Southeast  Level FlightAware Approximate
05:31PM 42.0828 -85.2383 120° Southeast 134 154 7,200  Level Chicago Center
05:32PM 42.0575 -85.1778 119° Southeast 153 176 7,100 -60 Descending Chicago Center
05:33PM 42.0350 -85.1208 118° Southeast 167 192 7,100  Level Chicago Center
05:34PM 42.0133 -85.0672 119° Southeast 165 190 7,100  Level Chicago Center
05:35PM 41.9931 -85.0119 116° Southeast 164 189 7,100  Level Chicago Center
05:36PM 41.9722 -84.9567 117° Southeast 165 190 7,100  Level Chicago Center
05:37PM 41.9511 -84.9006 117° Southeast 166 191 7,100  Level Chicago Center
05:38PM 41.9297 -84.8450 117° Southeast 167 192 7,100  Level Chicago Center
05:39PM 41.9039 -84.7794 118° Southeast 166 191 7,100  Level Chicago Center
05:40PM 41.8825 -84.7244 118° Southeast 165 190 7,100  Level Chicago Center
05:41PM 41.8592 -84.6711 120° Southeast 165 190 7,100  Level Chicago Center
05:42PM 41.8506 -84.6100 101° East 167 192 7,100  Level Chicago Center
05:43PM 41.8456 -84.5483 96° East 167 192 7,100  Level Chicago Center
05:44PM 41.8383 -84.4869 99° East 167 192 7,100  Level Chicago Center
05:45PM 41.8292 -84.4122 99° East 168 193 7,100  Level Chicago Center
05:46PM 41.8228 -84.3503 98° East 169 194 7,100  Level Chicago Center
05:47PM 41.8169 -84.2878 97° East 169 194 7,100  Level Chicago Center
05:49PM 41.8111 -84.2258 97° East 169 194 7,100  Level Chicago Center
05:50PM 41.8047 -84.1633 98° East 169 194 7,100  Level Chicago Center
06:06PM 41.6842 -83.0967 98° East 171 197 7,100  Level Cleveland Center
06:08PM 41.6753 -83.0267 100° East 172 198 7,100  Level Cleveland Center
06:09PM 41.6664 -82.9597 100° East 170 196 7,100  Level Cleveland Center
06:10PM 41.6592 -82.8983 99° East 170 196 7,100  Level Cleveland Center
06:11PM 41.6522 -82.8397 99° East 171 197 7,100  Level Cleveland Center
06:12PM 41.6453 -82.7700 98° East 171 197 7,100 -180 Level Cleveland Center
06:13PM 41.6381 -82.7031 98° East 172 198 6,800 -360 Descending Cleveland Center
06:14PM 41.6331 -82.6361 96° East 182 209 6,400 -420 Descending Cleveland Center
06:15PM 41.6217 -82.5664 102° East 185 213 6,000 -480 Descending Cleveland Center
06:16PM 41.6147 -82.4939 97° East 183 211 5,400 -480 Descending Cleveland Center
06:17PM 41.6075 -82.4244 98° East 179 206 5,100 -300 Descending Cleveland Center
06:18PM 41.6000 -82.3603 99° East 165 190 4,800 -360 Descending Cleveland Center
06:19PM 41.5928 -82.2989 99° East 175 201 4,400 -540 Descending Cleveland Center
06:20PM 41.5853 -82.2322 99° East 178 205 3,800 -540 Descending Cleveland Center
06:21PM 41.5758 -82.1708 102° East 174 200 3,400 -420 Descending Cleveland Center
06:22PM 41.5703 -82.1097 97° East 171 197 3,000 -420 Descending Cleveland Center
06:23PM 41.5775 -82.0486 81° East 168 193 2,600 -240 Descending Cleveland Center
06:24PM 41.5803 -81.9878 86° East 161 185 2,600 -240 Level Cleveland Center
06:25PM 41.5706 -81.9236 101° East 164 189 2,200 -360 Descending Cleveland Center
06:26PM 41.5567 -81.8789 113° Southeast 166 191 2,000 -300 Descending Cleveland Center
06:27PM 41.5406 -81.8231 111° Southeast 161 185 1,700 -240 Descending Cleveland Center
06:28PM 41.5244 -81.7619 109° East 151 174 1,600 -300 Descending Cleveland Center
06:29PM 41.5125 -81.7200 111° Southeast 116 133 1,100 -540 Descending Cleveland Center